sensor_id;sensor_type;location;lat;lon;timestamp;temperature;humidity
41668;DHT22;27356;50.920;5.350;2023-08-01T00:01:13;17.90;99.90
41668;DHT22;27356;50.920;5.350;2023-08-01T00:03:38;17.90;99.90
41668;DHT22;27356;50.920;5.350;2023-08-01T00:06:04;17.90;99.90
41668;DHT22;27356;50.920;5.350;2023-08-01T00:08:30;17.80;99.90
41668;DHT22;27356;50.920;5.350;2023-08-01T00:10:55;17.90;99.90
41668;DHT22;27356;50.920;5.350;2023-08-01T00:13:21;17.90;99.90
41668;DHT22;27356;50.920;5.350;2023-08-01T00:15:47;17.80;99.90
41668;DHT22;27356;50.920;5.350;2023-08-01T00:18:12;17.90;99.90
41668;DHT22;27356;50.920;5.350;2023-08-01T00:20:38;17.90;99.90
41668;DHT22;27356;50.920;5.350;2023-08-01T00:23:05;17.90;99.90
41668;DHT22;27356;50.920;5.350;2023-08-01T00:25:30;17.80;99.90
41668;DHT22;27356;50.920;5.350;2023-08-01T00:27:56;17.70;99.90
41668;DHT22;27356;50.920;5.350;2023-08-01T00:30:22;17.60;99.90
41668;DHT22;27356;50.920;5.350;2023-08-01T00:32:47;17.60;99.90
41668;DHT22;27356;50.920;5.350;2023-08-01T00:35:13;17.50;99.90
41668;DHT22;27356;50.920;5.350;2023-08-01T00:37:39;17.60;99.90
41668;DHT22;27356;50.920;5.350;2023-08-01T00:40:05;17.60;99.90
41668;DHT22;27356;50.920;5.350;2023-08-01T00:42:31;17.60;99.90
41668;DHT22;27356;50.920;5.350;2023-08-01T00:44:57;17.50;99.90
41668;DHT22;27356;50.920;5.350;2023-08-01T00:47:22;17.40;99.90
41668;DHT22;27356;50.920;5.350;2023-08-01T00:49:49;17.30;99.90
41668;DHT22;27356;50.920;5.350;2023-08-01T00:52:15;17.30;99.90
41668;DHT22;27356;50.920;5.350;2023-08-01T00:54:40;17.30;99.90
41668;DHT22;27356;50.920;5.350;2023-08-01T00:57:07;17.20;99.90
41668;DHT22;27356;50.920;5.350;2023-08-01T00:59:32;17.20;99.90
41668;DHT22;27356;50.920;5.350;2023-08-01T01:01:59;17.20;99.90
41668;DHT22;27356;50.920;5.350;2023-08-01T01:04:25;17.20;99.90
41668;DHT22;27356;50.920;5.350;2023-08-01T01:06:57;17.20;99.90
41668;DHT22;27356;50.920;5.350;2023-08-01T01:09:28;17.20;99.90
41668;DHT22;27356;50.920;5.350;2023-08-01T01:11:54;17.20;99.90
41668;DHT22;27356;50.920;5.350;2023-08-01T01:14:20;17.20;99.90
41668;DHT22;27356;50.920;5.350;2023-08-01T01:16:45;17.20;99.90
41668;DHT22;27356;50.920;5.350;2023-08-01T01:19:11;17.30;99.90
41668;DHT22;27356;50.920;5.350;2023-08-01T01:21:38;17.20;99.90
41668;DHT22;27356;50.920;5.350;2023-08-01T01:24:07;17.20;99.90
41668;DHT22;27356;50.920;5.350;2023-08-01T01:26:33;17.20;99.90
41668;DHT22;27356;50.920;5.350;2023-08-01T01:29:00;17.10;99.90
41668;DHT22;27356;50.920;5.350;2023-08-01T01:31:27;17.00;99.90
41668;DHT22;27356;50.920;5.350;2023-08-01T01:33:55;16.90;99.90
41668;DHT22;27356;50.920;5.350;2023-08-01T01:36:20;16.90;99.90
41668;DHT22;27356;50.920;5.350;2023-08-01T01:38:46;16.90;99.90
41668;DHT22;27356;50.920;5.350;2023-08-01T01:41:12;16.90;99.90
41668;DHT22;27356;50.920;5.350;2023-08-01T01:43:37;16.90;99.90
41668;DHT22;27356;50.920;5.350;2023-08-01T01:46:04;16.80;99.90
41668;DHT22;27356;50.920;5.350;2023-08-01T01:48:29;16.80;99.90
41668;DHT22;27356;50.920;5.350;2023-08-01T01:50:55;16.80;99.90
41668;DHT22;27356;50.920;5.350;2023-08-01T01:53:21;16.70;99.90
41668;DHT22;27356;50.920;5.350;2023-08-01T01:55:46;16.60;99.90
41668;DHT22;27356;50.920;5.350;2023-08-01T01:58:12;16.60;99.90
41668;DHT22;27356;50.920;5.350;2023-08-01T02:00:38;16.60;99.90
41668;DHT22;27356;50.920;5.350;2023-08-01T02:03:03;16.50;99.90
41668;DHT22;27356;50.920;5.350;2023-08-01T02:05:29;16.50;99.90
41668;DHT22;27356;50.920;5.350;2023-08-01T02:07:55;16.50;99.90
41668;DHT22;27356;50.920;5.350;2023-08-01T02:10:21;16.60;99.90
41668;DHT22;27356;50.920;5.350;2023-08-01T02:12:47;16.50;99.90
41668;DHT22;27356;50.920;5.350;2023-08-01T02:15:12;16.50;99.90
41668;DHT22;27356;50.920;5.350;2023-08-01T02:17:39;16.30;99.90
41668;DHT22;27356;50.920;5.350;2023-08-01T02:20:05;16.40;99.90
41668;DHT22;27356;50.920;5.350;2023-08-01T02:22:31;16.40;99.90
41668;DHT22;27356;50.920;5.350;2023-08-01T02:24:56;16.50;99.90
41668;DHT22;27356;50.920;5.350;2023-08-01T02:27:22;16.40;99.90
41668;DHT22;27356;50.920;5.350;2023-08-01T02:29:47;16.50;99.90
41668;DHT22;27356;50.920;5.350;2023-08-01T02:32:15;16.40;99.90
41668;DHT22;27356;50.920;5.350;2023-08-01T02:34:41;16.40;99.90
41668;DHT22;27356;50.920;5.350;2023-08-01T02:37:06;16.30;99.90
41668;DHT22;27356;50.920;5.350;2023-08-01T02:39:32;16.40;99.90
41668;DHT22;27356;50.920;5.350;2023-08-01T02:41:57;16.40;99.90
41668;DHT22;27356;50.920;5.350;2023-08-01T02:44:23;16.40;99.90
41668;DHT22;27356;50.920;5.350;2023-08-01T02:46:49;16.50;99.90
41668;DHT22;27356;50.920;5.350;2023-08-01T02:49:14;16.40;99.90
41668;DHT22;27356;50.920;5.350;2023-08-01T02:51:40;16.40;99.90
41668;DHT22;27356;50.920;5.350;2023-08-01T02:54:06;16.50;99.90
41668;DHT22;27356;50.920;5.350;2023-08-01T02:56:31;16.60;99.90
41668;DHT22;27356;50.920;5.350;2023-08-01T02:58:57;16.60;99.90
41668;DHT22;27356;50.920;5.350;2023-08-01T03:01:23;16.60;99.90
41668;DHT22;27356;50.920;5.350;2023-08-01T03:03:48;16.50;99.90
41668;DHT22;27356;50.920;5.350;2023-08-01T03:06:14;16.60;99.90
41668;DHT22;27356;50.920;5.350;2023-08-01T03:08:40;16.60;99.90
41668;DHT22;27356;50.920;5.350;2023-08-01T03:11:06;16.60;99.90
41668;DHT22;27356;50.920;5.350;2023-08-01T03:13:32;16.60;99.90
41668;DHT22;27356;50.920;5.350;2023-08-01T03:15:57;16.60;99.90
41668;DHT22;27356;50.920;5.350;2023-08-01T03:18:23;16.70;99.90
41668;DHT22;27356;50.920;5.350;2023-08-01T03:20:49;16.60;99.90
41668;DHT22;27356;50.920;5.350;2023-08-01T03:23:15;16.60;99.90
41668;DHT22;27356;50.920;5.350;2023-08-01T03:25:41;16.60;99.90
41668;DHT22;27356;50.920;5.350;2023-08-01T03:28:06;16.50;99.90
41668;DHT22;27356;50.920;5.350;2023-08-01T03:30:32;16.40;99.90
41668;DHT22;27356;50.920;5.350;2023-08-01T03:32:59;16.40;99.90
41668;DHT22;27356;50.920;5.350;2023-08-01T03:35:25;16.40;99.90
41668;DHT22;27356;50.920;5.350;2023-08-01T03:37:50;16.50;99.90
41668;DHT22;27356;50.920;5.350;2023-08-01T03:40:16;16.50;99.90
41668;DHT22;27356;50.920;5.350;2023-08-01T03:42:41;16.50;99.90
41668;DHT22;27356;50.920;5.350;2023-08-01T03:45:08;16.50;99.90
41668;DHT22;27356;50.920;5.350;2023-08-01T03:47:33;16.50;99.90
41668;DHT22;27356;50.920;5.350;2023-08-01T03:49:59;16.60;99.90
41668;DHT22;27356;50.920;5.350;2023-08-01T03:52:25;16.70;99.90
41668;DHT22;27356;50.920;5.350;2023-08-01T03:54:53;16.60;99.90
41668;DHT22;27356;50.920;5.350;2023-08-01T03:57:19;16.60;99.90
41668;DHT22;27356;50.920;5.350;2023-08-01T03:59:46;16.50;99.90
41668;DHT22;27356;50.920;5.350;2023-08-01T04:02:12;16.40;99.90
41668;DHT22;27356;50.920;5.350;2023-08-01T04:04:38;16.40;99.90
41668;DHT22;27356;50.920;5.350;2023-08-01T04:07:04;16.30;99.90
41668;DHT22;27356;50.920;5.350;2023-08-01T04:09:29;16.30;99.90
41668;DHT22;27356;50.920;5.350;2023-08-01T04:11:55;16.30;99.90
41668;DHT22;27356;50.920;5.350;2023-08-01T04:14:21;16.40;99.90
41668;DHT22;27356;50.920;5.350;2023-08-01T04:16:47;16.40;99.90
41668;DHT22;27356;50.920;5.350;2023-08-01T04:19:12;16.40;99.90
41668;DHT22;27356;50.920;5.350;2023-08-01T04:21:38;16.40;99.90
41668;DHT22;27356;50.920;5.350;2023-08-01T04:24:04;16.40;99.90
41668;DHT22;27356;50.920;5.350;2023-08-01T04:26:30;16.50;99.90
41668;DHT22;27356;50.920;5.350;2023-08-01T04:28:56;16.50;99.90
41668;DHT22;27356;50.920;5.350;2023-08-01T04:31:21;16.50;99.90
41668;DHT22;27356;50.920;5.350;2023-08-01T04:33:47;16.50;99.90
41668;DHT22;27356;50.920;5.350;2023-08-01T04:36:13;16.40;99.90
41668;DHT22;27356;50.920;5.350;2023-08-01T04:38:38;16.40;99.90
41668;DHT22;27356;50.920;5.350;2023-08-01T04:41:04;16.40;99.90
41668;DHT22;27356;50.920;5.350;2023-08-01T04:43:30;16.40;99.90
41668;DHT22;27356;50.920;5.350;2023-08-01T04:45:56;16.50;99.90
41668;DHT22;27356;50.920;5.350;2023-08-01T04:48:21;16.50;99.90
41668;DHT22;27356;50.920;5.350;2023-08-01T04:50:47;16.50;99.90
41668;DHT22;27356;50.920;5.350;2023-08-01T04:53:12;16.50;99.90
41668;DHT22;27356;50.920;5.350;2023-08-01T04:55:39;16.40;99.90
41668;DHT22;27356;50.920;5.350;2023-08-01T04:58:05;16.50;99.90
41668;DHT22;27356;50.920;5.350;2023-08-01T05:00:30;16.60;99.90
41668;DHT22;27356;50.920;5.350;2023-08-01T05:02:56;16.60;99.90
41668;DHT22;27356;50.920;5.350;2023-08-01T05:05:22;16.70;99.90
41668;DHT22;27356;50.920;5.350;2023-08-01T05:07:47;16.60;99.90
41668;DHT22;27356;50.920;5.350;2023-08-01T05:10:13;16.70;99.90
41668;DHT22;27356;50.920;5.350;2023-08-01T05:12:39;16.70;99.90
41668;DHT22;27356;50.920;5.350;2023-08-01T05:15:05;16.80;99.90
41668;DHT22;27356;50.920;5.350;2023-08-01T05:17:30;16.80;99.90
41668;DHT22;27356;50.920;5.350;2023-08-01T05:19:56;16.90;99.90
41668;DHT22;27356;50.920;5.350;2023-08-01T05:22:22;16.80;99.90
41668;DHT22;27356;50.920;5.350;2023-08-01T05:24:47;16.90;99.90
41668;DHT22;27356;50.920;5.350;2023-08-01T05:27:13;17.10;99.90
41668;DHT22;27356;50.920;5.350;2023-08-01T05:29:39;17.40;99.90
41668;DHT22;27356;50.920;5.350;2023-08-01T05:32:05;17.70;99.90
41668;DHT22;27356;50.920;5.350;2023-08-01T05:34:30;18.10;99.90
41668;DHT22;27356;50.920;5.350;2023-08-01T05:36:56;18.20;99.90
41668;DHT22;27356;50.920;5.350;2023-08-01T05:39:22;18.20;99.90
41668;DHT22;27356;50.920;5.350;2023-08-01T05:41:47;18.20;99.90
41668;DHT22;27356;50.920;5.350;2023-08-01T05:44:13;18.10;99.90
41668;DHT22;27356;50.920;5.350;2023-08-01T05:46:39;18.20;99.90
41668;DHT22;27356;50.920;5.350;2023-08-01T05:49:04;18.20;99.90
41668;DHT22;27356;50.920;5.350;2023-08-01T05:51:30;18.20;99.90
41668;DHT22;27356;50.920;5.350;2023-08-01T05:53:56;18.30;99.90
41668;DHT22;27356;50.920;5.350;2023-08-01T05:56:21;18.20;99.90
41668;DHT22;27356;50.920;5.350;2023-08-01T05:58:47;18.20;99.90
41668;DHT22;27356;50.920;5.350;2023-08-01T06:01:13;18.10;99.90
41668;DHT22;27356;50.920;5.350;2023-08-01T06:03:39;18.10;99.90
41668;DHT22;27356;50.920;5.350;2023-08-01T06:06:05;18.00;99.90
41668;DHT22;27356;50.920;5.350;2023-08-01T06:08:30;18.00;99.90
41668;DHT22;27356;50.920;5.350;2023-08-01T06:10:56;18.00;99.90
41668;DHT22;27356;50.920;5.350;2023-08-01T06:13:22;17.90;99.90
41668;DHT22;27356;50.920;5.350;2023-08-01T06:15:47;17.90;99.90
41668;DHT22;27356;50.920;5.350;2023-08-01T06:18:13;18.00;99.90
41668;DHT22;27356;50.920;5.350;2023-08-01T06:20:39;18.10;99.90
41668;DHT22;27356;50.920;5.350;2023-08-01T06:23:05;18.10;99.90
41668;DHT22;27356;50.920;5.350;2023-08-01T06:25:38;18.10;99.90
41668;DHT22;27356;50.920;5.350;2023-08-01T06:28:03;18.00;99.90
41668;DHT22;27356;50.920;5.350;2023-08-01T06:30:29;18.00;99.90
41668;DHT22;27356;50.920;5.350;2023-08-01T06:32:55;18.00;99.90
41668;DHT22;27356;50.920;5.350;2023-08-01T06:35:21;18.20;99.90
41668;DHT22;27356;50.920;5.350;2023-08-01T06:37:47;18.30;99.90
41668;DHT22;27356;50.920;5.350;2023-08-01T06:40:12;18.30;99.90
41668;DHT22;27356;50.920;5.350;2023-08-01T06:42:38;18.20;99.90
41668;DHT22;27356;50.920;5.350;2023-08-01T06:45:04;18.40;99.90
41668;DHT22;27356;50.920;5.350;2023-08-01T06:47:30;18.40;99.90
41668;DHT22;27356;50.920;5.350;2023-08-01T06:49:55;18.50;99.90
41668;DHT22;27356;50.920;5.350;2023-08-01T06:52:21;18.80;99.90
41668;DHT22;27356;50.920;5.350;2023-08-01T06:54:47;19.00;99.90
41668;DHT22;27356;50.920;5.350;2023-08-01T06:57:12;19.00;99.90
41668;DHT22;27356;50.920;5.350;2023-08-01T06:59:38;19.00;99.90
41668;DHT22;27356;50.920;5.350;2023-08-01T07:02:04;18.90;99.90
41668;DHT22;27356;50.920;5.350;2023-08-01T07:04:30;18.90;99.90
41668;DHT22;27356;50.920;5.350;2023-08-01T07:06:56;19.00;99.90
41668;DHT22;27356;50.920;5.350;2023-08-01T07:09:21;19.30;99.90
41668;DHT22;27356;50.920;5.350;2023-08-01T07:11:47;19.50;99.90
41668;DHT22;27356;50.920;5.350;2023-08-01T07:14:12;19.80;99.90
41668;DHT22;27356;50.920;5.350;2023-08-01T07:16:38;19.70;99.90
41668;DHT22;27356;50.920;5.350;2023-08-01T07:19:04;19.60;99.90
41668;DHT22;27356;50.920;5.350;2023-08-01T07:21:29;19.30;99.90
41668;DHT22;27356;50.920;5.350;2023-08-01T07:23:55;19.00;99.90
41668;DHT22;27356;50.920;5.350;2023-08-01T07:26:23;19.10;99.90
41668;DHT22;27356;50.920;5.350;2023-08-01T07:28:48;19.10;99.90
41668;DHT22;27356;50.920;5.350;2023-08-01T07:31:14;18.90;99.90
41668;DHT22;27356;50.920;5.350;2023-08-01T07:33:40;19.20;99.90
41668;DHT22;27356;50.920;5.350;2023-08-01T07:36:06;20.20;99.90
41668;DHT22;27356;50.920;5.350;2023-08-01T07:38:31;20.90;99.90
41668;DHT22;27356;50.920;5.350;2023-08-01T07:40:57;21.60;99.90
41668;DHT22;27356;50.920;5.350;2023-08-01T07:43:23;21.90;99.90
41668;DHT22;27356;50.920;5.350;2023-08-01T07:45:49;22.40;99.90
41668;DHT22;27356;50.920;5.350;2023-08-01T07:48:16;22.50;99.90
41668;DHT22;27356;50.920;5.350;2023-08-01T07:50:42;22.50;99.90
41668;DHT22;27356;50.920;5.350;2023-08-01T07:53:07;23.30;99.90
41668;DHT22;27356;50.920;5.350;2023-08-01T07:55:34;23.20;99.90
41668;DHT22;27356;50.920;5.350;2023-08-01T07:58:00;23.10;99.90
41668;DHT22;27356;50.920;5.350;2023-08-01T08:00:26;22.90;99.90
41668;DHT22;27356;50.920;5.350;2023-08-01T08:02:53;23.40;99.90
41668;DHT22;27356;50.920;5.350;2023-08-01T08:05:19;24.30;99.90
41668;DHT22;27356;50.920;5.350;2023-08-01T08:07:44;24.90;99.90
41668;DHT22;27356;50.920;5.350;2023-08-01T08:10:11;25.10;99.90
41668;DHT22;27356;50.920;5.350;2023-08-01T08:12:37;25.20;99.90
41668;DHT22;27356;50.920;5.350;2023-08-01T08:15:03;25.10;99.90
41668;DHT22;27356;50.920;5.350;2023-08-01T08:17:29;24.60;99.90
41668;DHT22;27356;50.920;5.350;2023-08-01T08:19:55;24.00;99.90
41668;DHT22;27356;50.920;5.350;2023-08-01T08:22:20;23.50;99.90
41668;DHT22;27356;50.920;5.350;2023-08-01T08:24:46;23.30;99.90
41668;DHT22;27356;50.920;5.350;2023-08-01T08:27:13;22.40;99.90
41668;DHT22;27356;50.920;5.350;2023-08-01T08:29:38;22.40;99.90
41668;DHT22;27356;50.920;5.350;2023-08-01T08:32:04;22.20;99.90
41668;DHT22;27356;50.920;5.350;2023-08-01T08:34:30;22.10;99.90
41668;DHT22;27356;50.920;5.350;2023-08-01T08:36:56;22.30;99.90
41668;DHT22;27356;50.920;5.350;2023-08-01T08:39:21;22.30;99.90
41668;DHT22;27356;50.920;5.350;2023-08-01T08:41:49;22.30;99.90
41668;DHT22;27356;50.920;5.350;2023-08-01T08:44:17;22.10;99.90
41668;DHT22;27356;50.920;5.350;2023-08-01T08:46:44;22.00;99.90
41668;DHT22;27356;50.920;5.350;2023-08-01T08:49:10;22.20;99.90
41668;DHT22;27356;50.920;5.350;2023-08-01T08:51:37;22.80;99.90
41668;DHT22;27356;50.920;5.350;2023-08-01T08:54:05;23.10;99.90
41668;DHT22;27356;50.920;5.350;2023-08-01T08:56:31;23.50;99.90
41668;DHT22;27356;50.920;5.350;2023-08-01T08:58:59;23.90;99.90
41668;DHT22;27356;50.920;5.350;2023-08-01T09:01:25;24.20;99.90
41668;DHT22;27356;50.920;5.350;2023-08-01T09:03:51;24.10;99.90
41668;DHT22;27356;50.920;5.350;2023-08-01T09:06:23;24.20;99.90
41668;DHT22;27356;50.920;5.350;2023-08-01T09:08:50;24.60;99.90
41668;DHT22;27356;50.920;5.350;2023-08-01T09:11:17;24.50;99.90
41668;DHT22;27356;50.920;5.350;2023-08-01T09:13:43;24.90;99.90
41668;DHT22;27356;50.920;5.350;2023-08-01T09:16:09;25.60;99.90
41668;DHT22;27356;50.920;5.350;2023-08-01T09:18:49;26.40;99.90
41668;DHT22;27356;50.920;5.350;2023-08-01T09:21:20;26.70;99.40
41668;DHT22;27356;50.920;5.350;2023-08-01T09:23:46;27.00;97.60
41668;DHT22;27356;50.920;5.350;2023-08-01T09:26:21;26.80;97.30
41668;DHT22;27356;50.920;5.350;2023-08-01T09:28:57;27.40;97.80
41668;DHT22;27356;50.920;5.350;2023-08-01T09:31:30;27.70;95.70
41668;DHT22;27356;50.920;5.350;2023-08-01T09:33:57;28.20;94.90
41668;DHT22;27356;50.920;5.350;2023-08-01T09:36:24;27.50;94.80
41668;DHT22;27356;50.920;5.350;2023-08-01T09:38:51;27.20;94.70
41668;DHT22;27356;50.920;5.350;2023-08-01T09:41:22;27.20;93.90
41668;DHT22;27356;50.920;5.350;2023-08-01T09:43:51;27.30;94.00
41668;DHT22;27356;50.920;5.350;2023-08-01T09:46:16;26.50;95.30
41668;DHT22;27356;50.920;5.350;2023-08-01T09:48:42;25.90;96.20
41668;DHT22;27356;50.920;5.350;2023-08-01T09:51:12;25.80;96.20
41668;DHT22;27356;50.920;5.350;2023-08-01T09:53:51;26.70;96.80
41668;DHT22;27356;50.920;5.350;2023-08-01T09:56:25;27.10;94.90
41668;DHT22;27356;50.920;5.350;2023-08-01T09:58:55;27.60;94.50
41668;DHT22;27356;50.920;5.350;2023-08-01T10:01:23;27.60;93.50
41668;DHT22;27356;50.920;5.350;2023-08-01T10:03:50;27.40;93.50
41668;DHT22;27356;50.920;5.350;2023-08-01T10:06:25;27.10;94.60
41668;DHT22;27356;50.920;5.350;2023-08-01T10:08:53;27.60;94.20
41668;DHT22;27356;50.920;5.350;2023-08-01T10:11:22;28.00;93.60
41668;DHT22;27356;50.920;5.350;2023-08-01T10:13:48;27.60;93.10
41668;DHT22;27356;50.920;5.350;2023-08-01T10:16:15;27.20;93.10
41668;DHT22;27356;50.920;5.350;2023-08-01T10:18:42;26.90;94.40
41668;DHT22;27356;50.920;5.350;2023-08-01T10:21:11;26.60;93.40
41668;DHT22;27356;50.920;5.350;2023-08-01T10:23:38;26.40;94.60
41668;DHT22;27356;50.920;5.350;2023-08-01T10:26:07;26.30;95.00
41668;DHT22;27356;50.920;5.350;2023-08-01T10:28:35;25.70;94.80
41668;DHT22;27356;50.920;5.350;2023-08-01T10:31:14;25.80;95.90
41668;DHT22;27356;50.920;5.350;2023-08-01T10:33:43;25.40;97.70
41668;DHT22;27356;50.920;5.350;2023-08-01T10:38:52;25.60;97.70
41668;DHT22;27356;50.920;5.350;2023-08-01T10:41:21;25.80;95.60
41668;DHT22;27356;50.920;5.350;2023-08-01T10:43:47;25.80;95.60
41668;DHT22;27356;50.920;5.350;2023-08-01T10:46:13;25.60;96.30
41668;DHT22;27356;50.920;5.350;2023-08-01T10:48:50;25.20;97.80
41668;DHT22;27356;50.920;5.350;2023-08-01T10:51:16;25.20;98.00
41668;DHT22;27356;50.920;5.350;2023-08-01T10:53:41;24.90;97.60
41668;DHT22;27356;50.920;5.350;2023-08-01T10:56:07;24.80;97.80
41668;DHT22;27356;50.920;5.350;2023-08-01T10:58:34;25.10;97.90
41668;DHT22;27356;50.920;5.350;2023-08-01T11:01:00;25.40;96.50
41668;DHT22;27356;50.920;5.350;2023-08-01T11:03:39;25.00;96.30
41668;DHT22;27356;50.920;5.350;2023-08-01T11:06:05;24.80;96.80
41668;DHT22;27356;50.920;5.350;2023-08-01T11:08:39;24.70;97.80
41668;DHT22;27356;50.920;5.350;2023-08-01T11:11:08;24.60;96.70
41668;DHT22;27356;50.920;5.350;2023-08-01T11:13:36;24.90;97.70
41668;DHT22;27356;50.920;5.350;2023-08-01T11:16:05;25.20;97.80
41668;DHT22;27356;50.920;5.350;2023-08-01T11:18:51;25.70;96.80
41668;DHT22;27356;50.920;5.350;2023-08-01T11:21:26;26.30;94.20
41668;DHT22;27356;50.920;5.350;2023-08-01T11:23:56;26.30;94.40
41668;DHT22;27356;50.920;5.350;2023-08-01T11:26:22;26.20;94.40
41668;DHT22;27356;50.920;5.350;2023-08-01T11:28:49;26.60;94.70
41668;DHT22;27356;50.920;5.350;2023-08-01T11:31:22;27.00;95.30
41668;DHT22;27356;50.920;5.350;2023-08-01T11:33:59;27.30;95.90
41668;DHT22;27356;50.920;5.350;2023-08-01T11:36:27;27.60;93.20
41668;DHT22;27356;50.920;5.350;2023-08-01T11:38:54;28.00;92.40
41668;DHT22;27356;50.920;5.350;2023-08-01T11:41:21;28.10;91.30
41668;DHT22;27356;50.920;5.350;2023-08-01T11:43:47;28.00;91.30
41668;DHT22;27356;50.920;5.350;2023-08-01T11:46:13;27.70;91.70
41668;DHT22;27356;50.920;5.350;2023-08-01T11:48:38;27.60;91.00
41668;DHT22;27356;50.920;5.350;2023-08-01T11:51:04;27.50;90.50
41668;DHT22;27356;50.920;5.350;2023-08-01T11:53:30;27.30;90.20
41668;DHT22;27356;50.920;5.350;2023-08-01T11:55:57;27.10;90.80
41668;DHT22;27356;50.920;5.350;2023-08-01T11:58:31;27.20;91.00
41668;DHT22;27356;50.920;5.350;2023-08-01T12:03:29;26.90;90.10
41668;DHT22;27356;50.920;5.350;2023-08-01T12:06:07;27.00;90.60
41668;DHT22;27356;50.920;5.350;2023-08-01T12:08:33;26.80;91.00
41668;DHT22;27356;50.920;5.350;2023-08-01T12:11:00;26.80;91.70
41668;DHT22;27356;50.920;5.350;2023-08-01T12:13:26;26.50;91.20
41668;DHT22;27356;50.920;5.350;2023-08-01T12:15:53;26.60;91.30
41668;DHT22;27356;50.920;5.350;2023-08-01T12:18:29;26.50;91.50
41668;DHT22;27356;50.920;5.350;2023-08-01T12:20:55;26.50;90.40
41668;DHT22;27356;50.920;5.350;2023-08-01T12:23:21;26.40;90.50
41668;DHT22;27356;50.920;5.350;2023-08-01T12:25:48;26.50;91.00
41668;DHT22;27356;50.920;5.350;2023-08-01T12:28:14;26.50;91.00
41668;DHT22;27356;50.920;5.350;2023-08-01T12:30:40;26.20;91.60
41668;DHT22;27356;50.920;5.350;2023-08-01T12:33:09;26.20;91.40
41668;DHT22;27356;50.920;5.350;2023-08-01T12:35:39;26.10;91.10
41668;DHT22;27356;50.920;5.350;2023-08-01T12:38:06;26.30;90.50
41668;DHT22;27356;50.920;5.350;2023-08-01T12:40:32;26.30;90.50
41668;DHT22;27356;50.920;5.350;2023-08-01T12:42:57;26.10;90.30
41668;DHT22;27356;50.920;5.350;2023-08-01T12:45:23;25.80;90.70
41668;DHT22;27356;50.920;5.350;2023-08-01T12:47:49;25.60;91.20
41668;DHT22;27356;50.920;5.350;2023-08-01T12:50:15;25.20;90.50
41668;DHT22;27356;50.920;5.350;2023-08-01T12:52:41;25.30;91.70
41668;DHT22;27356;50.920;5.350;2023-08-01T12:55:07;25.10;91.70
41668;DHT22;27356;50.920;5.350;2023-08-01T12:57:33;25.20;91.50
41668;DHT22;27356;50.920;5.350;2023-08-01T12:59:59;25.10;92.50
41668;DHT22;27356;50.920;5.350;2023-08-01T13:02:26;25.30;91.80
41668;DHT22;27356;50.920;5.350;2023-08-01T13:04:51;25.30;92.00
41668;DHT22;27356;50.920;5.350;2023-08-01T13:07:17;25.30;92.00
41668;DHT22;27356;50.920;5.350;2023-08-01T13:09:43;25.40;92.10
41668;DHT22;27356;50.920;5.350;2023-08-01T13:12:08;25.40;91.60
41668;DHT22;27356;50.920;5.350;2023-08-01T13:14:34;25.20;91.60
41668;DHT22;27356;50.920;5.350;2023-08-01T13:17:00;25.20;91.60
41668;DHT22;27356;50.920;5.350;2023-08-01T13:19:26;25.30;90.60
41668;DHT22;27356;50.920;5.350;2023-08-01T13:21:51;25.30;90.90
41668;DHT22;27356;50.920;5.350;2023-08-01T13:24:17;25.00;90.60
41668;DHT22;27356;50.920;5.350;2023-08-01T13:26:43;25.00;91.20
41668;DHT22;27356;50.920;5.350;2023-08-01T13:29:08;24.80;91.80
41668;DHT22;27356;50.920;5.350;2023-08-01T13:31:34;24.70;91.00
41668;DHT22;27356;50.920;5.350;2023-08-01T13:34:00;24.70;91.30
41668;DHT22;27356;50.920;5.350;2023-08-01T13:36:26;24.80;91.20
41668;DHT22;27356;50.920;5.350;2023-08-01T13:38:51;24.80;91.40
41668;DHT22;27356;50.920;5.350;2023-08-01T13:41:17;24.50;92.30
41668;DHT22;27356;50.920;5.350;2023-08-01T13:43:43;24.30;92.70
41668;DHT22;27356;50.920;5.350;2023-08-01T13:46:18;24.00;93.40
41668;DHT22;27356;50.920;5.350;2023-08-01T13:48:45;23.90;93.30
41668;DHT22;27356;50.920;5.350;2023-08-01T13:51:12;24.00;93.90
41668;DHT22;27356;50.920;5.350;2023-08-01T13:53:38;24.10;93.50
41668;DHT22;27356;50.920;5.350;2023-08-01T13:56:13;24.00;93.60
41668;DHT22;27356;50.920;5.350;2023-08-01T13:58:41;24.00;93.60
41668;DHT22;27356;50.920;5.350;2023-08-01T14:01:09;24.00;93.50
41668;DHT22;27356;50.920;5.350;2023-08-01T14:03:36;24.00;93.40
41668;DHT22;27356;50.920;5.350;2023-08-01T14:06:10;23.90;93.10
41668;DHT22;27356;50.920;5.350;2023-08-01T14:08:37;23.80;93.10
41668;DHT22;27356;50.920;5.350;2023-08-01T14:11:03;23.80;93.20
41668;DHT22;27356;50.920;5.350;2023-08-01T14:13:29;23.90;93.50
41668;DHT22;27356;50.920;5.350;2023-08-01T14:15:55;24.10;93.30
41668;DHT22;27356;50.920;5.350;2023-08-01T14:18:21;24.20;92.70
41668;DHT22;27356;50.920;5.350;2023-08-01T14:20:46;24.40;93.00
41668;DHT22;27356;50.920;5.350;2023-08-01T14:23:12;24.60;92.20
41668;DHT22;27356;50.920;5.350;2023-08-01T14:25:38;24.70;92.00
41668;DHT22;27356;50.920;5.350;2023-08-01T14:28:04;24.60;92.30
41668;DHT22;27356;50.920;5.350;2023-08-01T14:30:30;24.70;92.90
41668;DHT22;27356;50.920;5.350;2023-08-01T14:33:04;24.70;93.40
41668;DHT22;27356;50.920;5.350;2023-08-01T14:35:31;24.80;92.60
41668;DHT22;27356;50.920;5.350;2023-08-01T14:37:56;24.80;92.20
41668;DHT22;27356;50.920;5.350;2023-08-01T14:40:22;24.60;92.10
41668;DHT22;27356;50.920;5.350;2023-08-01T14:42:48;24.60;91.80
41668;DHT22;27356;50.920;5.350;2023-08-01T14:45:14;24.50;91.90
41668;DHT22;27356;50.920;5.350;2023-08-01T14:47:41;24.60;92.20
41668;DHT22;27356;50.920;5.350;2023-08-01T14:50:11;24.80;91.80
41668;DHT22;27356;50.920;5.350;2023-08-01T14:52:37;25.00;91.50
41668;DHT22;27356;50.920;5.350;2023-08-01T14:55:04;25.10;91.60
41668;DHT22;27356;50.920;5.350;2023-08-01T14:57:30;25.20;91.40
41668;DHT22;27356;50.920;5.350;2023-08-01T14:59:55;25.10;91.90
41668;DHT22;27356;50.920;5.350;2023-08-01T15:02:21;24.80;91.30
41668;DHT22;27356;50.920;5.350;2023-08-01T15:04:51;24.60;91.70
41668;DHT22;27356;50.920;5.350;2023-08-01T15:07:17;24.20;92.00
41668;DHT22;27356;50.920;5.350;2023-08-01T15:09:43;24.10;92.20
41668;DHT22;27356;50.920;5.350;2023-08-01T15:12:09;23.90;92.30
41668;DHT22;27356;50.920;5.350;2023-08-01T15:14:36;23.40;92.40
41668;DHT22;27356;50.920;5.350;2023-08-01T15:17:02;23.30;93.00
41668;DHT22;27356;50.920;5.350;2023-08-01T15:19:27;23.10;93.60
41668;DHT22;27356;50.920;5.350;2023-08-01T15:21:53;23.10;93.60
41668;DHT22;27356;50.920;5.350;2023-08-01T15:24:18;23.40;93.30
41668;DHT22;27356;50.920;5.350;2023-08-01T15:26:44;23.40;93.00
41668;DHT22;27356;50.920;5.350;2023-08-01T15:29:10;23.40;93.20
41668;DHT22;27356;50.920;5.350;2023-08-01T15:31:36;23.30;93.50